sensor_id;sensor_type;location;lat;lon;timestamp;P1;durP1;ratioP1;P2;durP2;ratioP2
80261;SDS011;69567;47.574;8.580;2023-08-20T00:00:13;5.25;;;4.13;;
80261;SDS011;69567;47.574;8.580;2023-08-20T00:02:42;4.72;;;3.47;;
80261;SDS011;69567;47.574;8.580;2023-08-20T00:05:10;4.60;;;3.40;;
80261;SDS011;69567;47.574;8.580;2023-08-20T00:07:40;4.20;;;3.70;;
80261;SDS011;69567;47.574;8.580;2023-08-20T00:10:08;6.60;;;3.65;;
80261;SDS011;69567;47.574;8.580;2023-08-20T00:12:36;4.55;;;3.67;;
80261;SDS011;69567;47.574;8.580;2023-08-20T00:15:04;4.10;;;3.70;;
80261;SDS011;69567;47.574;8.580;2023-08-20T00:17:33;5.10;;;4.15;;
80261;SDS011;69567;47.574;8.580;2023-08-20T00:20:02;3.88;;;3.58;;
80261;SDS011;69567;47.574;8.580;2023-08-20T00:22:36;4.65;;;3.72;;
80261;SDS011;69567;47.574;8.580;2023-08-20T00:25:05;5.68;;;4.00;;
80261;SDS011;69567;47.574;8.580;2023-08-20T00:27:34;5.00;;;3.58;;
80261;SDS011;69567;47.574;8.580;2023-08-20T00:30:03;3.83;;;3.40;;
80261;SDS011;69567;47.574;8.580;2023-08-20T00:32:31;4.00;;;3.63;;
80261;SDS011;69567;47.574;8.580;2023-08-20T00:34:59;4.93;;;3.85;;
80261;SDS011;69567;47.574;8.580;2023-08-20T00:37:26;5.05;;;3.60;;
80261;SDS011;69567;47.574;8.580;2023-08-20T00:39:54;4.07;;;3.25;;
80261;SDS011;69567;47.574;8.580;2023-08-20T00:42:25;5.30;;;3.78;;
80261;SDS011;69567;47.574;8.580;2023-08-20T00:44:53;5.25;;;3.63;;
80261;SDS011;69567;47.574;8.580;2023-08-20T00:47:21;4.72;;;3.67;;
80261;SDS011;69567;47.574;8.580;2023-08-20T00:49:49;4.65;;;3.10;;
80261;SDS011;69567;47.574;8.580;2023-08-20T00:52:17;4.63;;;3.42;;
80261;SDS011;69567;47.574;8.580;2023-08-20T00:54:45;3.47;;;3.15;;
80261;SDS011;69567;47.574;8.580;2023-08-20T00:57:15;6.38;;;3.45;;
80261;SDS011;69567;47.574;8.580;2023-08-20T00:59:46;4.80;;;3.50;;
80261;SDS011;69567;47.574;8.580;2023-08-20T01:02:14;4.50;;;3.38;;
80261;SDS011;69567;47.574;8.580;2023-08-20T01:04:42;4.45;;;3.22;;
80261;SDS011;69567;47.574;8.580;2023-08-20T01:07:11;3.90;;;3.38;;
80261;SDS011;69567;47.574;8.580;2023-08-20T01:12:09;5.85;;;3.70;;
80261;SDS011;69567;47.574;8.580;2023-08-20T01:14:37;5.68;;;3.45;;
80261;SDS011;69567;47.574;8.580;2023-08-20T01:17:07;3.45;;;3.15;;
80261;SDS011;69567;47.574;8.580;2023-08-20T01:19:35;5.45;;;3.42;;
80261;SDS011;69567;47.574;8.580;2023-08-20T01:22:05;4.47;;;3.60;;
80261;SDS011;69567;47.574;8.580;2023-08-20T01:24:44;5.20;;;3.75;;
80261;SDS011;69567;47.574;8.580;2023-08-20T01:27:20;3.78;;;3.40;;
80261;SDS011;69567;47.574;8.580;2023-08-20T01:29:57;4.13;;;3.25;;
80261;SDS011;69567;47.574;8.580;2023-08-20T01:32:26;3.90;;;3.33;;
80261;SDS011;69567;47.574;8.580;2023-08-20T01:34:54;3.08;;;2.88;;
80261;SDS011;69567;47.574;8.580;2023-08-20T01:37:22;4.40;;;3.60;;
80261;SDS011;69567;47.574;8.580;2023-08-20T01:39:50;4.90;;;3.75;;
80261;SDS011;69567;47.574;8.580;2023-08-20T01:42:18;4.18;;;3.70;;
80261;SDS011;69567;47.574;8.580;2023-08-20T01:44:46;4.40;;;3.20;;
80261;SDS011;69567;47.574;8.580;2023-08-20T01:47:15;3.40;;;3.17;;
80261;SDS011;69567;47.574;8.580;2023-08-20T01:49:43;3.58;;;3.28;;
80261;SDS011;69567;47.574;8.580;2023-08-20T01:52:11;3.50;;;3.20;;
80261;SDS011;69567;47.574;8.580;2023-08-20T01:54:39;4.68;;;3.25;;
80261;SDS011;69567;47.574;8.580;2023-08-20T01:57:07;3.63;;;3.28;;
80261;SDS011;69567;47.574;8.580;2023-08-20T01:59:35;3.90;;;3.50;;
80261;SDS011;69567;47.574;8.580;2023-08-20T02:02:03;4.18;;;3.25;;
80261;SDS011;69567;47.574;8.580;2023-08-20T02:04:32;5.55;;;3.90;;
80261;SDS011;69567;47.574;8.580;2023-08-20T02:07:00;4.90;;;3.53;;
80261;SDS011;69567;47.574;8.580;2023-08-20T02:09:28;4.50;;;3.33;;
80261;SDS011;69567;47.574;8.580;2023-08-20T02:11:55;3.97;;;3.33;;
80261;SDS011;69567;47.574;8.580;2023-08-20T02:14:23;4.47;;;3.33;;
80261;SDS011;69567;47.574;8.580;2023-08-20T02:16:53;3.90;;;3.50;;
80261;SDS011;69567;47.574;8.580;2023-08-20T02:19:21;3.42;;;3.13;;
80261;SDS011;69567;47.574;8.580;2023-08-20T02:21:51;5.78;;;3.47;;
80261;SDS011;69567;47.574;8.580;2023-08-20T02:24:20;5.05;;;3.40;;
80261;SDS011;69567;47.574;8.580;2023-08-20T02:26:48;4.22;;;3.75;;
80261;SDS011;69567;47.574;8.580;2023-08-20T02:29:16;3.47;;;3.17;;
80261;SDS011;69567;47.574;8.580;2023-08-20T02:31:43;3.75;;;3.20;;
80261;SDS011;69567;47.574;8.580;2023-08-20T02:34:11;4.72;;;3.63;;
80261;SDS011;69567;47.574;8.580;2023-08-20T02:36:39;4.03;;;3.65;;
80261;SDS011;69567;47.574;8.580;2023-08-20T02:39:08;6.07;;;3.72;;
80261;SDS011;69567;47.574;8.580;2023-08-20T02:41:36;4.60;;;3.55;;
80261;SDS011;69567;47.574;8.580;2023-08-20T02:44:04;5.65;;;3.83;;
80261;SDS011;69567;47.574;8.580;2023-08-20T02:46:32;3.80;;;3.17;;
80261;SDS011;69567;47.574;8.580;2023-08-20T02:48:59;4.35;;;3.53;;
80261;SDS011;69567;47.574;8.580;2023-08-20T02:51:27;4.18;;;3.17;;
80261;SDS011;69567;47.574;8.580;2023-08-20T02:53:57;5.85;;;3.47;;
80261;SDS011;69567;47.574;8.580;2023-08-20T02:56:26;3.50;;;3.15;;
80261;SDS011;69567;47.574;8.580;2023-08-20T02:58:54;5.03;;;3.58;;
80261;SDS011;69567;47.574;8.580;2023-08-20T03:01:23;4.32;;;3.92;;
80261;SDS011;69567;47.574;8.580;2023-08-20T03:03:50;3.92;;;3.53;;
80261;SDS011;69567;47.574;8.580;2023-08-20T03:06:18;3.72;;;3.33;;
80261;SDS011;69567;47.574;8.580;2023-08-20T03:08:46;5.32;;;3.53;;
80261;SDS011;69567;47.574;8.580;2023-08-20T03:11:14;4.32;;;3.00;;
80261;SDS011;69567;47.574;8.580;2023-08-20T03:13:44;3.92;;;3.53;;
80261;SDS011;69567;47.574;8.580;2023-08-20T03:16:11;5.72;;;3.75;;
80261;SDS011;69567;47.574;8.580;2023-08-20T03:18:39;4.68;;;3.83;;
80261;SDS011;69567;47.574;8.580;2023-08-20T03:21:07;4.07;;;3.45;;
80261;SDS011;69567;47.574;8.580;2023-08-20T03:23:35;3.58;;;3.05;;
80261;SDS011;69567;47.574;8.580;2023-08-20T03:26:03;4.63;;;3.20;;
80261;SDS011;69567;47.574;8.580;2023-08-20T03:28:31;3.75;;;3.20;;
80261;SDS011;69567;47.574;8.580;2023-08-20T03:31:00;3.67;;;3.20;;
80261;SDS011;69567;47.574;8.580;2023-08-20T03:33:28;4.47;;;3.88;;
80261;SDS011;69567;47.574;8.580;2023-08-20T03:35:56;6.30;;;3.53;;
80261;SDS011;69567;47.574;8.580;2023-08-20T03:38:25;4.15;;;3.17;;
80261;SDS011;69567;47.574;8.580;2023-08-20T03:40:54;3.83;;;3.25;;
80261;SDS011;69567;47.574;8.580;2023-08-20T03:43:22;3.65;;;3.33;;
80261;SDS011;69567;47.574;8.580;2023-08-20T03:45:50;3.97;;;3.58;;
80261;SDS011;69567;47.574;8.580;2023-08-20T03:48:20;3.60;;;3.22;;
80261;SDS011;69567;47.574;8.580;2023-08-20T03:50:48;5.32;;;3.17;;
80261;SDS011;69567;47.574;8.580;2023-08-20T03:53:16;5.10;;;3.28;;
80261;SDS011;69567;47.574;8.580;2023-08-20T03:55:47;3.45;;;3.15;;
80261;SDS011;69567;47.574;8.580;2023-08-20T03:58:14;5.07;;;3.42;;
80261;SDS011;69567;47.574;8.580;2023-08-20T04:00:43;4.47;;;3.53;;
80261;SDS011;69567;47.574;8.580;2023-08-20T04:03:10;4.10;;;3.30;;
80261;SDS011;69567;47.574;8.580;2023-08-20T04:05:40;3.85;;;3.40;;
80261;SDS011;69567;47.574;8.580;2023-08-20T04:08:07;4.72;;;3.70;;
80261;SDS011;69567;47.574;8.580;2023-08-20T04:10:37;4.28;;;3.55;;
80261;SDS011;69567;47.574;8.580;2023-08-20T04:13:09;3.72;;;3.15;;
80261;SDS011;69567;47.574;8.580;2023-08-20T04:15:37;3.90;;;3.30;;
80261;SDS011;69567;47.574;8.580;2023-08-20T04:18:05;3.70;;;3.40;;
80261;SDS011;69567;47.574;8.580;2023-08-20T04:20:33;4.80;;;3.88;;
80261;SDS011;69567;47.574;8.580;2023-08-20T04:23:02;4.32;;;3.22;;
80261;SDS011;69567;47.574;8.580;2023-08-20T04:25:30;3.22;;;2.92;;
80261;SDS011;69567;47.574;8.580;2023-08-20T04:27:58;4.18;;;3.67;;
80261;SDS011;69567;47.574;8.580;2023-08-20T04:30:25;4.03;;;3.58;;
80261;SDS011;69567;47.574;8.580;2023-08-20T04:32:53;4.75;;;4.07;;
80261;SDS011;69567;47.574;8.580;2023-08-20T04:35:21;3.45;;;3.10;;
80261;SDS011;69567;47.574;8.580;2023-08-20T04:37:49;4.07;;;3.58;;
80261;SDS011;69567;47.574;8.580;2023-08-20T04:40:18;5.25;;;3.70;;
80261;SDS011;69567;47.574;8.580;2023-08-20T04:42:46;4.68;;;3.63;;
80261;SDS011;69567;47.574;8.580;2023-08-20T04:45:13;4.75;;;3.38;;
80261;SDS011;69567;47.574;8.580;2023-08-20T04:47:44;3.40;;;3.10;;
80261;SDS011;69567;47.574;8.580;2023-08-20T04:50:12;3.40;;;3.03;;
80261;SDS011;69567;47.574;8.580;2023-08-20T04:52:40;4.07;;;3.67;;
80261;SDS011;69567;47.574;8.580;2023-08-20T04:55:08;5.28;;;3.75;;
80261;SDS011;69567;47.574;8.580;2023-08-20T04:57:37;4.00;;;3.60;;
80261;SDS011;69567;47.574;8.580;2023-08-20T05:00:06;3.97;;;3.53;;
80261;SDS011;69567;47.574;8.580;2023-08-20T05:02:34;5.13;;;3.55;;
80261;SDS011;69567;47.574;8.580;2023-08-20T05:05:02;4.18;;;3.78;;
80261;SDS011;69567;47.574;8.580;2023-08-20T05:07:29;3.47;;;3.08;;
80261;SDS011;69567;47.574;8.580;2023-08-20T05:09:57;4.10;;;3.15;;
80261;SDS011;69567;47.574;8.580;2023-08-20T05:12:25;4.78;;;3.78;;
80261;SDS011;69567;47.574;8.580;2023-08-20T05:14:54;6.70;;;4.03;;
80261;SDS011;69567;47.574;8.580;2023-08-20T05:17:22;3.95;;;3.17;;
80261;SDS011;69567;47.574;8.580;2023-08-20T05:19:50;3.70;;;3.28;;
80261;SDS011;69567;47.574;8.580;2023-08-20T05:22:17;3.47;;;3.17;;
80261;SDS011;69567;47.574;8.580;2023-08-20T05:24:45;4.50;;;3.33;;
80261;SDS011;69567;47.574;8.580;2023-08-20T05:27:14;6.18;;;4.28;;
80261;SDS011;69567;47.574;8.580;2023-08-20T05:29:42;3.90;;;3.50;;
80261;SDS011;69567;47.574;8.580;2023-08-20T05:32:12;4.25;;;3.45;;
80261;SDS011;69567;47.574;8.580;2023-08-20T05:34:41;4.45;;;3.30;;
80261;SDS011;69567;47.574;8.580;2023-08-20T05:37:08;3.88;;;3.30;;
80261;SDS011;69567;47.574;8.580;2023-08-20T05:39:36;4.00;;;3.63;;
80261;SDS011;69567;47.574;8.580;2023-08-20T05:42:05;5.10;;;3.63;;
80261;SDS011;69567;47.574;8.580;2023-08-20T05:44:33;3.85;;;3.53;;
80261;SDS011;69567;47.574;8.580;2023-08-20T05:47:00;4.35;;;3.65;;
80261;SDS011;69567;47.574;8.580;2023-08-20T05:49:29;5.00;;;3.05;;
80261;SDS011;69567;47.574;8.580;2023-08-20T05:51:57;3.78;;;3.35;;
80261;SDS011;69567;47.574;8.580;2023-08-20T05:54:25;3.55;;;3.25;;
80261;SDS011;69567;47.574;8.580;2023-08-20T05:56:53;6.25;;;3.97;;
80261;SDS011;69567;47.574;8.580;2023-08-20T05:59:20;4.10;;;3.72;;
80261;SDS011;69567;47.574;8.580;2023-08-20T06:01:48;4.00;;;3.40;;
80261;SDS011;69567;47.574;8.580;2023-08-20T06:04:16;4.88;;;3.78;;
80261;SDS011;69567;47.574;8.580;2023-08-20T06:06:46;3.40;;;3.10;;
80261;SDS011;69567;47.574;8.580;2023-08-20T06:09:14;4.10;;;3.55;;
80261;SDS011;69567;47.574;8.580;2023-08-20T06:11:42;4.22;;;3.25;;
80261;SDS011;69567;47.574;8.580;2023-08-20T06:14:09;4.22;;;3.40;;
80261;SDS011;69567;47.574;8.580;2023-08-20T06:16:37;3.67;;;3.38;;
80261;SDS011;69567;47.574;8.580;2023-08-20T06:19:05;5.57;;;4.63;;
80261;SDS011;69567;47.574;8.580;2023-08-20T06:21:33;4.25;;;3.75;;
80261;SDS011;69567;47.574;8.580;2023-08-20T06:24:03;4.10;;;3.53;;
80261;SDS011;69567;47.574;8.580;2023-08-20T06:26:30;5.35;;;4.07;;
80261;SDS011;69567;47.574;8.580;2023-08-20T06:28:58;5.18;;;3.85;;
80261;SDS011;69567;47.574;8.580;2023-08-20T06:31:26;4.85;;;3.92;;
80261;SDS011;69567;47.574;8.580;2023-08-20T06:33:54;4.18;;;3.78;;
80261;SDS011;69567;47.574;8.580;2023-08-20T06:36:21;7.63;;;4.30;;
80261;SDS011;69567;47.574;8.580;2023-08-20T06:38:49;5.18;;;4.28;;
80261;SDS011;69567;47.574;8.580;2023-08-20T06:41:18;5.63;;;4.65;;
80261;SDS011;69567;47.574;8.580;2023-08-20T06:43:46;7.22;;;4.53;;
80261;SDS011;69567;47.574;8.580;2023-08-20T06:46:14;5.07;;;4.10;;
80261;SDS011;69567;47.574;8.580;2023-08-20T06:48:42;4.78;;;3.80;;
80261;SDS011;69567;47.574;8.580;2023-08-20T06:51:13;4.10;;;3.65;;
80261;SDS011;69567;47.574;8.580;2023-08-20T06:53:41;5.07;;;4.20;;
80261;SDS011;69567;47.574;8.580;2023-08-20T06:56:09;3.88;;;3.58;;
80261;SDS011;69567;47.574;8.580;2023-08-20T06:58:40;5.47;;;3.65;;
80261;SDS011;69567;47.574;8.580;2023-08-20T07:01:08;4.47;;;3.83;;
80261;SDS011;69567;47.574;8.580;2023-08-20T07:03:39;3.42;;;3.15;;
80261;SDS011;69567;47.574;8.580;2023-08-20T07:06:07;4.72;;;3.97;;
80261;SDS011;69567;47.574;8.580;2023-08-20T07:08:36;4.35;;;3.92;;
80261;SDS011;69567;47.574;8.580;2023-08-20T07:11:05;4.20;;;3.78;;
80261;SDS011;69567;47.574;8.580;2023-08-20T07:13:33;5.43;;;4.18;;
80261;SDS011;69567;47.574;8.580;2023-08-20T07:16:02;5.05;;;3.60;;
80261;SDS011;69567;47.574;8.580;2023-08-20T07:18:30;3.70;;;3.17;;
80261;SDS011;69567;47.574;8.580;2023-08-20T07:20:58;4.15;;;3.75;;
80261;SDS011;69567;47.574;8.580;2023-08-20T07:23:26;5.10;;;4.70;;
80261;SDS011;69567;47.574;8.580;2023-08-20T07:26:03;3.88;;;3.47;;
80261;SDS011;69567;47.574;8.580;2023-08-20T07:28:31;3.97;;;3.55;;
80261;SDS011;69567;47.574;8.580;2023-08-20T07:31:14;2.65;;;2.35;;
80261;SDS011;69567;47.574;8.580;2023-08-20T07:33:45;2.47;;;2.22;;
80261;SDS011;69567;47.574;8.580;2023-08-20T07:36:13;3.63;;;3.33;;
80261;SDS011;69567;47.574;8.580;2023-08-20T07:38:41;4.07;;;3.72;;
80261;SDS011;69567;47.574;8.580;2023-08-20T07:41:10;5.70;;;4.38;;
80261;SDS011;69567;47.574;8.580;2023-08-20T07:43:39;5.20;;;4.53;;
80261;SDS011;69567;47.574;8.580;2023-08-20T07:46:07;4.30;;;3.97;;
80261;SDS011;69567;47.574;8.580;2023-08-20T07:48:36;4.10;;;3.65;;
80261;SDS011;69567;47.574;8.580;2023-08-20T07:51:04;4.63;;;4.15;;
80261;SDS011;69567;47.574;8.580;2023-08-20T07:53:33;4.32;;;3.33;;
80261;SDS011;69567;47.574;8.580;2023-08-20T07:56:01;4.78;;;4.28;;
80261;SDS011;69567;47.574;8.580;2023-08-20T07:58:29;5.60;;;4.88;;
80261;SDS011;69567;47.574;8.580;2023-08-20T08:00:57;4.00;;;3.60;;
80261;SDS011;69567;47.574;8.580;2023-08-20T08:03:25;4.20;;;3.33;;
80261;SDS011;69567;47.574;8.580;2023-08-20T08:05:55;4.35;;;3.95;;
80261;SDS011;69567;47.574;8.580;2023-08-20T08:08:23;3.38;;;2.67;;
80261;SDS011;69567;47.574;8.580;2023-08-20T08:10:51;4.95;;;3.65;;
80261;SDS011;69567;47.574;8.580;2023-08-20T08:13:19;5.22;;;4.18;;
80261;SDS011;69567;47.574;8.580;2023-08-20T08:15:47;3.88;;;3.30;;
80261;SDS011;69567;47.574;8.580;2023-08-20T08:18:15;4.53;;;3.17;;
80261;SDS011;69567;47.574;8.580;2023-08-20T08:20:43;4.22;;;3.85;;
80261;SDS011;69567;47.574;8.580;2023-08-20T08:23:12;4.90;;;4.15;;
80261;SDS011;69567;47.574;8.580;2023-08-20T08:25:40;6.13;;;4.22;;
80261;SDS011;69567;47.574;8.580;2023-08-20T08:28:08;5.90;;;4.07;;
80261;SDS011;69567;47.574;8.580;2023-08-20T08:30:36;4.32;;;3.67;;
80261;SDS011;69567;47.574;8.580;2023-08-20T08:33:04;2.90;;;2.67;;
80261;SDS011;69567;47.574;8.580;2023-08-20T08:35:32;3.78;;;3.42;;
80261;SDS011;69567;47.574;8.580;2023-08-20T08:37:59;4.53;;;3.85;;
80261;SDS011;69567;47.574;8.580;2023-08-20T08:40:29;7.28;;;4.30;;
80261;SDS011;69567;47.574;8.580;2023-08-20T08:42:57;4.72;;;4.30;;
80261;SDS011;69567;47.574;8.580;2023-08-20T08:45:25;6.38;;;4.13;;
80261;SDS011;69567;47.574;8.580;2023-08-20T08:47:54;5.03;;;3.65;;
80261;SDS011;69567;47.574;8.580;2023-08-20T08:50:22;5.10;;;3.58;;
80261;SDS011;69567;47.574;8.580;2023-08-20T08:52:50;4.13;;;3.50;;
80261;SDS011;69567;47.574;8.580;2023-08-20T08:55:19;4.38;;;3.55;;
80261;SDS011;69567;47.574;8.580;2023-08-20T08:57:48;3.58;;;3.28;;
80261;SDS011;69567;47.574;8.580;2023-08-20T09:00:16;3.60;;;3.05;;
80261;SDS011;69567;47.574;8.580;2023-08-20T09:02:43;4.15;;;3.75;;
80261;SDS011;69567;47.574;8.580;2023-08-20T09:05:12;3.60;;;3.03;;
80261;SDS011;69567;47.574;8.580;2023-08-20T09:07:41;3.70;;;3.38;;
80261;SDS011;69567;47.574;8.580;2023-08-20T09:10:10;4.07;;;3.70;;
80261;SDS011;69567;47.574;8.580;2023-08-20T09:12:38;3.72;;;3.30;;
80261;SDS011;69567;47.574;8.580;2023-08-20T09:15:11;3.95;;;3.63;;
80261;SDS011;69567;47.574;8.580;2023-08-20T09:17:40;4.68;;;3.42;;
80261;SDS011;69567;47.574;8.580;2023-08-20T09:20:09;3.88;;;3.33;;
80261;SDS011;69567;47.574;8.580;2023-08-20T09:22:37;4.32;;;3.92;;
80261;SDS011;69567;47.574;8.580;2023-08-20T09:25:05;4.38;;;3.63;;
80261;SDS011;69567;47.574;8.580;2023-08-20T09:27:38;3.78;;;3.45;;
80261;SDS011;69567;47.574;8.580;2023-08-20T09:30:06;4.57;;;3.88;;
80261;SDS011;69567;47.574;8.580;2023-08-20T09:32:36;4.13;;;3.78;;
80261;SDS011;69567;47.574;8.580;2023-08-20T09:35:04;4.10;;;3.72;;
80261;SDS011;69567;47.574;8.580;2023-08-20T09:37:33;4.38;;;3.75;;
80261;SDS011;69567;47.574;8.580;2023-08-20T09:40:01;5.28;;;3.38;;
80261;SDS011;69567;47.574;8.580;2023-08-20T09:42:30;4.38;;;3.85;;
80261;SDS011;69567;47.574;8.580;2023-08-20T09:44:59;3.90;;;3.50;;
80261;SDS011;69567;47.574;8.580;2023-08-20T09:47:30;3.92;;;3.47;;
80261;SDS011;69567;47.574;8.580;2023-08-20T09:50:01;5.47;;;3.97;;
80261;SDS011;69567;47.574;8.580;2023-08-20T09:52:31;4.93;;;4.35;;
80261;SDS011;69567;47.574;8.580;2023-08-20T09:55:06;3.75;;;3.38;;
80261;SDS011;69567;47.574;8.580;2023-08-20T09:57:35;4.32;;;3.92;;
80261;SDS011;69567;47.574;8.580;2023-08-20T10:00:05;4.03;;;3.63;;
80261;SDS011;69567;47.574;8.580;2023-08-20T10:02:36;3.63;;;2.72;;
80261;SDS011;69567;47.574;8.580;2023-08-20T10:05:09;3.45;;;3.15;;
80261;SDS011;69567;47.574;8.580;2023-08-20T10:07:37;4.75;;;3.88;;
80261;SDS011;69567;47.574;8.580;2023-08-20T10:10:05;4.05;;;3.70;;
80261;SDS011;69567;47.574;8.580;2023-08-20T10:12:34;3.55;;;3.25;;
80261;SDS011;69567;47.574;8.580;2023-08-20T10:15:02;3.83;;;3.47;;
80261;SDS011;69567;47.574;8.580;2023-08-20T10:17:30;4.35;;;3.38;;
80261;SDS011;69567;47.574;8.580;2023-08-20T10:20:01;4.53;;;3.15;;
80261;SDS011;69567;47.574;8.580;2023-08-20T10:22:35;3.88;;;3.47;;
80261;SDS011;69567;47.574;8.580;2023-08-20T10:25:05;3.33;;;3.03;;
80261;SDS011;69567;47.574;8.580;2023-08-20T10:27:34;4.38;;;3.42;;
80261;SDS011;69567;47.574;8.580;2023-08-20T10:30:06;6.35;;;3.35;;
80261;SDS011;69567;47.574;8.580;2023-08-20T10:32:44;5.00;;;3.42;;
80261;SDS011;69567;47.574;8.580;2023-08-20T10:35:12;3.60;;;3.20;;
80261;SDS011;69567;47.574;8.580;2023-08-20T10:37:46;5.38;;;3.85;;
80261;SDS011;69567;47.574;8.580;2023-08-20T10:40:46;3.30;;;3.00;;
80261;SDS011;69567;47.574;8.580;2023-08-20T10:43:23;4.68;;;3.17;;
80261;SDS011;69567;47.574;8.580;2023-08-20T10:46:01;4.28;;;3.88;;
80261;SDS011;69567;47.574;8.580;2023-08-20T10:48:35;4.15;;;2.95;;
80261;SDS011;69567;47.574;8.580;2023-08-20T10:51:07;2.72;;;2.53;;
80261;SDS011;69567;47.574;8.580;2023-08-20T10:53:36;3.25;;;2.95;;
80261;SDS011;69567;47.574;8.580;2023-08-20T10:56:11;3.63;;;3.15;;
80261;SDS011;69567;47.574;8.580;2023-08-20T10:58:42;2.63;;;2.42;;
80261;SDS011;69567;47.574;8.580;2023-08-20T11:01:14;3.47;;;3.17;;
80261;SDS011;69567;47.574;8.580;2023-08-20T11:03:42;4.45;;;3.65;;
80261;SDS011;69567;47.574;8.580;2023-08-20T11:06:11;4.32;;;3.75;;
80261;SDS011;69567;47.574;8.580;2023-08-20T11:08:40;4.65;;;3.70;;
80261;SDS011;69567;47.574;8.580;2023-08-20T11:11:09;4.13;;;3.75;;
80261;SDS011;69567;47.574;8.580;2023-08-20T11:13:37;5.00;;;3.90;;
80261;SDS011;69567;47.574;8.580;2023-08-20T11:16:05;4.85;;;4.07;;
80261;SDS011;69567;47.574;8.580;2023-08-20T11:18:34;3.55;;;3.05;;
80261;SDS011;69567;47.574;8.580;2023-08-20T11:21:02;3.92;;;3.53;;
80261;SDS011;69567;47.574;8.580;2023-08-20T13:25:21;4.03;;;3.38;;
80261;SDS011;69567;47.574;8.580;2023-08-20T13:27:49;4.28;;;3.90;;
80261;SDS011;69567;47.574;8.580;2023-08-20T13:30:17;4.35;;;3.70;;
80261;SDS011;69567;47.574;8.580;2023-08-20T13:32:46;4.78;;;3.35;;
80261;SDS011;69567;47.574;8.580;2023-08-20T13:35:14;4.35;;;3.40;;
80261;SDS011;69567;47.574;8.580;2023-08-20T13:37:42;3.83;;;3.17;;
80261;SDS011;69567;47.574;8.580;2023-08-20T13:40:10;3.47;;;3.22;;
80261;SDS011;69567;47.574;8.580;2023-08-20T13:42:39;3.95;;;3.58;;
80261;SDS011;69567;47.574;8.580;2023-08-20T13:45:07;4.03;;;3.35;;
80261;SDS011;69567;47.574;8.580;2023-08-20T13:47:36;3.75;;;3.33;;
80261;SDS011;69567;47.574;8.580;2023-08-20T13:50:04;6.13;;;3.17;;
80261;SDS011;69567;47.574;8.580;2023-08-20T13:52:32;4.03;;;3.63;;
80261;SDS011;69567;47.574;8.580;2023-08-20T13:55:00;3.80;;;3.50;;
80261;SDS011;69567;47.574;8.580;2023-08-20T13:57:28;4.47;;;3.33;;
80261;SDS011;69567;47.574;8.580;2023-08-20T13:59:57;3.65;;;2.88;;
80261;SDS011;69567;47.574;8.580;2023-08-20T14:02:26;5.47;;;3.17;;
80261;SDS011;69567;47.574;8.580;2023-08-20T14:04:54;4.15;;;3.38;;
80261;SDS011;69567;47.574;8.580;2023-08-20T14:07:22;4.38;;;3.38;;
80261;SDS011;69567;47.574;8.580;2023-08-20T14:09:50;3.95;;;3.42;;
80261;SDS011;69567;47.574;8.580;2023-08-20T14:12:18;3.80;;;3.08;;
80261;SDS011;69567;47.574;8.580;2023-08-20T14:14:46;3.33;;;2.60;;
80261;SDS011;69567;47.574;8.580;2023-08-20T14:17:16;6.18;;;2.88;;
80261;SDS011;69567;47.574;8.580;2023-08-20T14:19:44;3.42;;;2.90;;
80261;SDS011;69567;47.574;8.580;2023-08-20T14:22:11;6.18;;;3.38;;
80261;SDS011;69567;47.574;8.580;2023-08-20T14:24:39;2.55;;;2.35;;
80261;SDS011;69567;47.574;8.580;2023-08-20T14:27:07;3.03;;;2.33;;
80261;SDS011;69567;47.574;8.580;2023-08-20T14:29:35;2.95;;;2.65;;
80261;SDS011;69567;47.574;8.580;2023-08-20T14:32:03;2.33;;;2.03;;
80261;SDS011;69567;47.574;8.580;2023-08-20T14:34:32;3.45;;;2.30;;
80261;SDS011;69567;47.574;8.580;2023-08-20T14:37:00;4.10;;;2.65;;
80261;SDS011;69567;47.574;8.580;2023-08-20T14:39:27;3.17;;;2.88;;
80261;SDS011;69567;47.574;8.580;2023-08-20T14:41:58;2.83;;;2.63;;
80261;SDS011;69567;47.574;8.580;2023-08-20T14:44:25;3.53;;;2.35;;
80261;SDS011;69567;47.574;8.580;2023-08-20T14:46:53;2.28;;;2.13;;
80261;SDS011;69567;47.574;8.580;2023-08-20T14:49:21;2.30;;;2.10;;
80261;SDS011;69567;47.574;8.580;2023-08-20T14:51:50;2.30;;;2.05;;
80261;SDS011;69567;47.574;8.580;2023-08-20T14:54:24;4.32;;;2.20;;
80261;SDS011;69567;47.574;8.580;2023-08-20T14:56:52;2.17;;;1.75;;
80261;SDS011;69567;47.574;8.580;2023-08-20T14:59:20;3.92;;;2.35;;
80261;SDS011;69567;47.574;8.580;2023-08-20T15:01:48;3.65;;;2.38;;
80261;SDS011;69567;47.574;8.580;2023-08-20T15:04:16;3.10;;;2.55;;
80261;SDS011;69567;47.574;8.580;2023-08-20T15:06:44;2.58;;;2.38;;
80261;SDS011;69567;47.574;8.580;2023-08-20T15:09:13;5.05;;;2.80;;
80261;SDS011;69567;47.574;8.580;2023-08-20T15:11:42;5.57;;;2.42;;
80261;SDS011;69567;47.574;8.580;2023-08-20T15:14:10;4.70;;;2.58;;
80261;SDS011;69567;47.574;8.580;2023-08-20T15:16:38;3.95;;;2.38;;
80261;SDS011;69567;47.574;8.580;2023-08-20T15:19:06;2.58;;;2.25;;
80261;SDS011;69567;47.574;8.580;2023-08-20T15:21:34;2.88;;;2.67;;
80261;SDS011;69567;47.574;8.580;2023-08-20T15:24:02;2.53;;;2.20;;
80261;SDS011;69567;47.574;8.580;2023-08-20T15:26:32;2.35;;;2.15;;
80261;SDS011;69567;47.574;8.580;2023-08-20T15:29:00;3.22;;;2.85;;
80261;SDS011;69567;47.574;8.580;2023-08-20T15:31:29;4.10;;;2.90;;
80261;SDS011;69567;47.574;8.580;2023-08-20T15:33:57;4.22;;;2.45;;
80261;SDS011;69567;47.574;8.580;2023-08-20T15:36:24;3.00;;;2.60;;
80261;SDS011;69567;47.574;8.580;2023-08-20T15:38:52;2.95;;;2.38;;
80261;SDS011;69567;47.574;8.580;2023-08-20T15:41:20;2.67;;;2.47;;
80261;SDS011;69567;47.574;8.580;2023-08-20T15:43:49;3.63;;;2.92;;
80261;SDS011;69567;47.574;8.580;2023-08-20T15:46:17;4.38;;;2.60;;
80261;SDS011;69567;47.574;8.580;2023-08-20T15:48:45;2.75;;;2.55;;
80261;SDS011;69567;47.574;8.580;2023-08-20T15:51:13;3.85;;;2.45;;
80261;SDS011;69567;47.574;8.580;2023-08-20T15:53:41;3.15;;;2.92;;
80261;SDS011;69567;47.574;8.580;2023-08-20T15:56:08;2.78;;;2.53;;
80261;SDS011;69567;47.574;8.580;2023-08-20T15:58:36;3.60;;;2.75;;
80261;SDS011;69567;47.574;8.580;2023-08-20T16:01:06;4.47;;;2.70;;
80261;SDS011;69567;47.574;8.580;2023-08-20T16:03:35;3.35;;;2.78;;
80261;SDS011;69567;47.574;8.580;2023-08-20T16:06:03;9.40;;;6.80;;
80261;SDS011;69567;47.574;8.580;2023-08-20T16:08:33;3.80;;;3.38;;
80261;SDS011;69567;47.574;8.580;2023-08-20T16:11:03;2.55;;;2.35;;
80261;SDS011;69567;47.574;8.580;2023-08-20T16:13:31;2.35;;;2.15;;
80261;SDS011;69567;47.574;8.580;2023-08-20T16:15:59;5.07;;;2.45;;
80261;SDS011;69567;47.574;8.580;2023-08-20T16:18:28;7.45;;;4.35;;
80261;SDS011;69567;47.574;8.580;2023-08-20T16:20:56;2.75;;;2.22;;
80261;SDS011;69567;47.574;8.580;2023-08-20T16:23:24;6.47;;;2.72;;
80261;SDS011;69567;47.574;8.580;2023-08-20T16:25:52;5.22;;;3.10;;
80261;SDS011;69567;47.574;8.580;2023-08-20T16:28:20;66.00;;;29.00;;
80261;SDS011;69567;47.574;8.580;2023-08-20T16:30:47;154.13;;;67.13;;
80261;SDS011;69567;47.574;8.580;2023-08-20T16:33:15;138.27;;;68.25;;
80261;SDS011;69567;47.574;8.580;2023-08-20T16:35:46;209.70;;;103.40;;
80261;SDS011;69567;47.574;8.580;2023-08-20T16:38:14;73.00;;;36.75;;
80261;SDS011;69567;47.574;8.580;2023-08-20T16:40:41;21.48;;;12.25;;
80261;SDS011;69567;47.574;8.580;2023-08-20T16:43:09;40.67;;;18.77;;
80261;SDS011;69567;47.574;8.580;2023-08-20T16:45:37;35.15;;;17.17;;
80261;SDS011;69567;47.574;8.580;2023-08-20T16:48:05;18.90;;;10.60;;
80261;SDS011;69567;47.574;8.580;2023-08-20T16:50:33;18.40;;;11.77;;
80261;SDS011;69567;47.574;8.580;2023-08-20T16:53:03;11.18;;;6.25;;
80261;SDS011;69567;47.574;8.580;2023-08-20T16:55:31;4.72;;;3.58;;
80261;SDS011;69567;47.574;8.580;2023-08-20T16:57:58;5.38;;;3.95;;
80261;SDS011;69567;47.574;8.580;2023-08-20T17:00:26;4.22;;;2.83;;